Time;durP1;ratioP1;P1;durP2;ratioP2;P2;SDS_P1;SDS_P2;PMS_P1;PMS_P2;Temp;Humidity;BMP_temperature;BMP_pressure;BME280_temperature;BME280_humidity;BME280_pressure;Samples;Min_cycle;Max_cycle;Signal;HPM_P1;HPM_P2
2020/12/08 00:01:46;;;;;;;7.88;3.55;;;;;;;25.96;30.67;95005.03;4954533;28;20045;-35
2020/12/08 00:04:11;;;;;;;6.85;3.50;;;;;;;25.96;30.75;95010.28;4967289;28;20039;-34
2020/12/08 00:06:37;;;;;;;9.77;3.78;;;;;;;25.97;30.52;95004.09;4962943;28;20717;-34
2020/12/08 00:09:02;;;;;;;9.10;3.70;;;;;;;25.98;30.58;95012.78;4958987;28;20035;-35
2020/12/08 00:11:27;;;;;;;8.27;3.35;;;;;;;25.96;30.62;95008.50;4965084;28;20532;-35
2020/12/08 00:13:53;;;;;;;8.48;3.72;;;;;;;25.98;30.73;95005.78;4964398;28;20668;-35
2020/12/08 00:16:19;;;;;;;7.45;3.45;;;;;;;25.98;30.64;95002.31;4963249;28;20046;-35
2020/12/08 00:18:45;;;;;;;6.30;3.00;;;;;;;25.99;30.39;94990.84;4964654;28;20042;-35
2020/12/08 00:21:11;;;;;;;8.15;3.55;;;;;;;25.99;30.49;94991.69;4964591;28;20051;-34
2020/12/08 00:23:36;;;;;;;7.68;3.40;;;;;;;25.99;30.61;94991.69;4965684;28;20054;-34
2020/12/08 00:26:03;;;;;;;7.60;3.70;;;;;;;26.00;30.59;94998.59;4959641;28;20042;-34
2020/12/08 00:28:28;;;;;;;8.23;3.15;;;;;;;26.00;30.36;95003.84;4959505;28;20046;-33
2020/12/08 00:30:54;;;;;;;7.57;3.28;;;;;;;25.97;30.47;94998.84;4956449;28;20602;-34
2020/12/08 00:33:19;;;;;;;7.82;3.15;;;;;;;25.96;30.68;94989.31;4963980;28;20041;-34
2020/12/08 00:35:45;;;;;;;7.32;3.67;;;;;;;25.95;30.51;94995.50;4963612;28;20476;-34
2020/12/08 00:38:12;;;;;;;6.95;3.20;;;;;;;25.96;30.61;95002.41;4956577;28;20069;-35
2020/12/08 00:40:37;;;;;;;9.52;3.13;;;;;;;25.93;30.51;95003.50;4954959;28;20030;-34
2020/12/08 00:43:03;;;;;;;5.88;3.03;;;;;;;25.93;30.62;95002.69;4958576;28;20062;-34
2020/12/08 00:45:28;;;;;;;7.15;3.35;;;;;;;25.92;30.57;94990.50;4962199;28;20050;-35
2020/12/08 00:47:55;;;;;;;5.25;3.38;;;;;;;25.92;30.65;94990.50;4963118;28;20512;-34
2020/12/08 00:50:21;;;;;;;6.43;3.25;;;;;;;25.93;30.53;95000.06;4961350;28;20031;-35
2020/12/08 00:52:47;;;;;;;7.97;3.55;;;;;;;25.89;30.40;94996.03;4960065;28;20041;-34
2020/12/08 00:55:12;;;;;;;7.00;3.40;;;;;;;25.85;30.43;95007.72;4965811;28;20676;-35
2020/12/08 00:57:38;;;;;;;6.35;3.35;;;;;;;25.83;30.55;95008.66;4953571;28;20058;-34
2020/12/08 01:00:05;;;;;;;6.82;3.63;;;;;;;25.82;30.48;95011.44;4962885;28;20053;-33
2020/12/08 01:02:30;;;;;;;6.43;3.05;;;;;;;25.80;30.47;95003.69;4953395;28;20035;-34
2020/12/08 01:04:56;;;;;;;6.97;2.97;;;;;;;25.78;30.67;94997.72;4981427;28;20109;-34
2020/12/08 01:07:21;;;;;;;8.15;3.03;;;;;;;25.81;30.83;95001.88;4957989;28;20397;-34
2020/12/08 01:09:48;;;;;;;7.82;3.35;;;;;;;25.80;30.67;95003.69;4971098;28;20467;-35
2020/12/08 01:12:13;;;;;;;5.20;2.90;;;;;;;25.79;30.65;94996.78;4960509;28;20038;-34
2020/12/08 01:14:39;;;;;;;7.28;3.47;;;;;;;25.78;30.59;94992.47;4964111;28;20043;-34
2020/12/08 01:17:05;;;;;;;5.10;3.17;;;;;;;25.77;30.43;94993.44;4964489;28;20034;-34
2020/12/08 01:19:31;;;;;;;6.35;3.38;;;;;;;25.79;30.64;94991.53;4956695;28;20042;-34
2020/12/08 01:21:57;;;;;;;6.35;3.30;;;;;;;25.81;30.74;94994.00;4963610;28;20493;-35
2020/12/08 01:24:22;;;;;;;8.75;2.90;;;;;;;25.84;30.60;94983.28;4953973;28;20094;-34
2020/12/08 01:26:48;;;;;;;5.82;3.08;;;;;;;25.85;30.44;94992.00;4967516;28;20055;-34
2020/12/08 01:29:13;;;;;;;9.20;3.25;;;;;;;25.82;30.38;94991.28;4964624;28;20617;-35
2020/12/08 01:31:40;;;;;;;6.90;3.25;;;;;;;25.82;30.57;94998.31;4961835;28;20050;-34
2020/12/08 01:34:07;;;;;;;6.07;3.22;;;;;;;25.80;30.51;94993.19;4956442;28;20046;-35
2020/12/08 01:36:32;;;;;;;8.05;3.20;;;;;;;25.79;30.67;95007.28;4954942;28;20075;-34
2020/12/08 01:38:57;;;;;;;6.43;3.20;;;;;;;25.77;30.52;95003.94;4964933;28;20386;-37
2020/12/08 01:41:23;;;;;;;6.70;3.20;;;;;;;25.78;30.46;94995.09;4957005;28;20049;-35
2020/12/08 01:43:49;;;;;;;5.93;2.80;;;;;;;25.79;30.43;94985.44;4960874;28;20050;-35
2020/12/08 01:46:19;;;;;;;5.60;2.90;;;;;;;25.78;30.62;94989.84;4958819;28;20102;-34
2020/12/08 01:48:48;;;;;;;5.63;3.05;;;;;;;25.76;30.56;94976.03;4962840;28;20536;-33
2020/12/08 01:51:15;;;;;;;7.03;2.88;;;;;;;25.76;30.72;94981.28;4962196;28;20150;-35
2020/12/08 01:53:41;;;;;;;5.60;3.00;;;;;;;25.78;30.69;94979.34;4958772;28;20564;-35
2020/12/08 01:56:08;;;;;;;4.82;2.85;;;;;;;25.77;30.44;94972.44;4978339;28;20075;-34
2020/12/08 01:58:35;;;;;;;6.55;3.10;;;;;;;25.77;30.44;94974.22;4961795;28;20042;-34
2020/12/08 02:01:00;;;;;;;4.57;2.65;;;;;;;25.74;30.53;94967.44;4954842;28;20043;-34
2020/12/08 02:03:28;;;;;;;6.40;3.00;;;;;;;25.73;30.67;94970.22;4959179;28;20555;-36
2020/12/08 02:05:54;;;;;;;5.28;2.88;;;;;;;25.74;30.79;94967.44;4963613;28;20515;-34
2020/12/08 02:08:32;;;;;;;6.13;3.22;;;;;;;25.76;30.67;94965.53;4965144;28;20034;-33
2020/12/08 02:10:58;;;;;;;4.60;2.83;;;;;;;25.75;30.47;94969.13;4962879;28;20177;-34
2020/12/08 02:13:25;;;;;;;5.40;2.78;;;;;;;25.73;30.63;94981.53;4966925;28;20046;-34
2020/12/08 02:15:51;;;;;;;4.60;2.63;;;;;;;25.72;30.62;94985.13;4957162;28;20093;-35
2020/12/08 02:18:17;;;;;;;4.35;2.30;;;;;;;25.69;30.36;94985.34;4960315;28;20055;-35
2020/12/08 02:20:43;;;;;;;5.10;2.90;;;;;;;25.69;30.65;94977.50;4962054;28;20049;-34
2020/12/08 02:23:09;;;;;;;4.10;2.55;;;;;;;25.71;30.47;94983.47;4956697;28;20053;-35
2020/12/08 02:25:35;;;;;;;7.97;2.95;;;;;;;25.69;30.60;94990.59;4960610;28;20043;-34
2020/12/08 02:28:01;;;;;;;5.88;3.10;;;;;;;25.68;30.65;94995.03;4959516;28;20489;-34
2020/12/08 02:30:27;;;;;;;4.72;2.90;;;;;;;25.71;30.51;94988.69;4961107;28;20054;-34
2020/12/08 02:32:52;;;;;;;5.22;2.72;;;;;;;25.71;30.70;94988.69;4958215;28;20412;-34
2020/12/08 02:35:18;;;;;;;6.47;2.97;;;;;;;25.72;30.59;94982.50;4962186;28;20066;-34
2020/12/08 02:37:44;;;;;;;5.40;2.47;;;;;;;25.72;30.59;94979.88;4963512;28;20386;-34
2020/12/08 02:40:10;;;;;;;5.07;2.45;;;;;;;25.73;30.72;94981.53;4964134;28;20031;-35
2020/12/08 02:42:35;;;;;;;6.18;2.60;;;;;;;25.75;30.76;94974.38;4965569;28;20047;-35
2020/12/08 02:45:01;;;;;;;4.55;2.50;;;;;;;25.77;30.62;94977.69;4958687;28;20047;-35
2020/12/08 02:47:27;;;;;;;4.32;2.60;;;;;;;25.78;30.46;94971.47;4952454;28;20043;-34
2020/12/08 02:49:56;;;;;;;4.00;2.40;;;;;;;25.80;30.44;94982.69;4963026;28;20585;-32
2020/12/08 02:52:22;;;;;;;4.50;2.80;;;;;;;25.80;30.61;94972.22;4955414;28;20042;-34
2020/12/08 02:54:48;;;;;;;4.05;2.42;;;;;;;25.81;30.48;94979.13;4955841;28;20047;-35
2020/12/08 02:57:14;;;;;;;3.63;2.00;;;;;;;25.76;30.34;94970.78;4957990;28;20097;-35
2020/12/08 02:59:40;;;;;;;3.70;2.13;;;;;;;25.85;30.39;94976.25;4964091;28;20046;-35
2020/12/08 03:02:06;;;;;;;4.65;2.60;;;;;;;25.84;30.40;94967.53;4952003;28;20050;-34
2020/12/08 03:04:32;;;;;;;4.97;2.65;;;;;;;25.83;30.40;94971.94;4962804;28;20039;-34
2020/12/08 03:06:58;;;;;;;6.60;2.95;;;;;;;25.81;30.65;94963.38;4961560;28;20046;-32
2020/12/08 03:09:24;;;;;;;4.90;2.72;;;;;;;25.81;30.49;94958.13;4962372;28;20485;-34
2020/12/08 03:11:49;;;;;;;3.70;2.40;;;;;;;25.82;30.32;94962.41;4959553;28;20047;-34
2020/12/08 03:14:15;;;;;;;4.38;2.60;;;;;;;25.82;30.74;94954.53;4965412;28;20047;-34
2020/12/08 03:16:41;;;;;;;6.03;2.47;;;;;;;25.84;30.41;94967.53;4969241;28;20424;-34
2020/12/08 03:19:07;;;;;;;4.05;2.38;;;;;;;25.85;30.35;94958.69;4958617;28;20086;-34
2020/12/08 03:21:35;;;;;;;6.78;2.47;;;;;;;25.85;30.48;94963.13;4959160;28;20046;-35
2020/12/08 03:24:02;;;;;;;4.80;2.30;;;;;;;25.85;30.37;94965.75;4957933;28;20038;-34
2020/12/08 03:26:28;;;;;;;3.63;2.50;;;;;;;25.84;30.18;94959.66;4967581;28;20034;-34
2020/12/08 03:28:53;;;;;;;4.57;2.40;;;;;;;25.82;30.42;94964.22;4967551;28;20520;-35
2020/12/08 03:31:19;;;;;;;4.00;2.40;;;;;;;25.83;30.41;94961.44;4971239;28;20047;-34
2020/12/08 03:33:45;;;;;;;3.65;2.20;;;;;;;25.86;30.34;94959.53;4967129;28;20396;-36
2020/12/08 03:36:12;;;;;;;5.28;2.33;;;;;;;25.86;30.37;94967.41;4955040;28;20549;-34
2020/12/08 03:38:38;;;;;;;4.07;2.30;;;;;;;25.86;30.45;94962.16;4968561;28;20038;-34
2020/12/08 03:41:03;;;;;;;4.90;2.38;;;;;;;25.88;30.22;94963.69;4959650;28;20113;-34
2020/12/08 03:43:29;;;;;;;4.18;2.30;;;;;;;25.88;30.46;94968.94;4965397;28;20531;-34
2020/12/08 03:45:54;;;;;;;6.20;2.65;;;;;;;25.88;29.33;94962.84;4969748;28;20054;-34
2020/12/08 03:48:20;;;;;;;4.30;2.10;;;;;;;25.88;29.92;94957.59;4968449;28;20082;-33
2020/12/08 03:50:46;;;;;;;3.80;2.10;;;;;;;25.89;30.13;94951.41;4963610;28;20051;-34
2020/12/08 03:53:11;;;;;;;3.72;2.22;;;;;;;25.90;30.24;94950.44;4963155;28;20050;-35
2020/12/08 03:55:36;;;;;;;3.00;2.30;;;;;;;25.90;30.01;94964.38;4964310;28;20086;-35
2020/12/08 03:58:02;;;;;;;4.03;2.28;;;;;;;25.90;30.20;94950.44;4961592;28;20042;-35
2020/12/08 04:00:27;;;;;;;3.13;2.17;;;;;;;25.91;29.89;94952.13;4955010;28;20043;-34
2020/12/08 04:02:53;;;;;;;4.38;2.42;;;;;;;25.91;30.19;94952.13;4962450;28;20053;-34
2020/12/08 04:05:18;;;;;;;4.18;2.72;;;;;;;25.92;30.13;94953.78;4955295;28;20478;-34
2020/12/08 04:07:46;;;;;;;4.22;2.25;;;;;;;25.92;30.16;94953.78;4955798;28;20050;-34
2020/12/08 04:10:12;;;;;;;3.85;2.15;;;;;;;25.91;30.01;94947.72;4985007;28;20026;-34
2020/12/08 04:12:37;;;;;;;4.28;2.60;;;;;;;25.89;30.16;94946.16;4964220;28;20515;-35
2020/12/08 04:15:03;;;;;;;3.80;2.40;;;;;;;25.93;30.17;94950.22;4964078;28;20054;-34
2020/12/08 04:17:29;;;;;;;5.40;2.55;;;;;;;25.93;30.03;94952.84;4959538;28;20034;-34
2020/12/08 04:19:55;;;;;;;2.67;2.05;;;;;;;25.92;30.08;94953.78;4963373;28;20049;-35
2020/12/08 04:22:20;;;;;;;4.05;2.20;;;;;;;25.92;30.09;94959.03;4966603;28;20038;-33
2020/12/08 04:24:46;;;;;;;2.78;1.90;;;;;;;25.92;30.12;94959.88;4955884;28;20034;-34
2020/12/08 04:27:12;;;;;;;4.10;2.25;;;;;;;25.92;30.09;94954.63;4962561;28;20038;-34
2020/12/08 04:29:37;;;;;;;4.72;2.25;;;;;;;25.92;30.10;94954.63;4967225;28;20054;-34
2020/12/08 04:32:04;;;;;;;3.70;2.20;;;;;;;25.92;29.99;94953.78;4953358;28;20062;-34
2020/12/08 04:34:30;;;;;;;3.40;2.20;;;;;;;25.91;29.98;94955.59;4956357;28;20043;-34
2020/12/08 04:37:00;;;;;;;2.95;1.80;;;;;;;25.91;30.09;94968.69;4958830;28;20523;-33
2020/12/08 04:39:26;;;;;;;3.13;2.10;;;;;;;25.91;30.19;94979.19;4958304;28;20058;-34
2020/12/08 04:41:55;;;;;;;2.97;1.92;;;;;;;25.90;30.04;94960.94;4954186;28;20046;-34
2020/12/08 04:44:20;;;;;;;3.20;2.05;;;;;;;25.91;30.16;94966.06;4964484;28;20181;-33
2020/12/08 04:46:47;;;;;;;3.55;1.90;;;;;;;25.90;30.12;94964.38;4961133;28;20552;-34
2020/12/08 04:49:13;;;;;;;4.50;2.50;;;;;;;25.89;30.07;94957.47;4950676;28;20505;-35
2020/12/08 04:51:39;;;;;;;3.67;2.28;;;;;;;25.92;30.09;94956.41;4970830;28;20034;-34
2020/12/08 04:54:05;;;;;;;3.20;2.10;;;;;;;25.93;30.01;94955.47;4959972;28;20051;-33
2020/12/08 04:56:32;;;;;;;4.88;2.42;;;;;;;25.93;29.91;94958.09;4958108;28;20053;-34
2020/12/08 04:58:58;;;;;;;3.20;1.95;;;;;;;25.91;29.88;94962.59;4960043;28;20051;-34
2020/12/08 05:01:27;;;;;;;3.42;2.42;;;;;;;25.91;30.01;94962.59;4955590;28;20053;-34
2020/12/08 05:04:10;;;;;;;2.05;1.75;;;;;;;25.90;30.14;94959.13;4965164;28;20043;-34
2020/12/08 05:06:36;;;;;;;4.05;2.20;;;;;;;25.90;30.12;94960.94;4965392;28;20050;-34
2020/12/08 05:09:05;;;;;;;2.45;1.90;;;;;;;25.91;29.91;94952.13;4979864;28;20097;-34
2020/12/08 05:11:30;;;;;;;2.55;1.95;;;;;;;25.90;29.81;94948.66;4959549;28;20397;-34
2020/12/08 05:14:03;;;;;;;3.05;2.13;;;;;;;25.89;29.89;94940.94;4953724;28;20058;-34
2020/12/08 05:16:28;;;;;;;3.53;2.10;;;;;;;25.89;30.01;94949.63;4966021;28;20046;-34
2020/12/08 05:19:07;;;;;;;2.45;1.67;;;;;;;25.89;29.88;94954.03;4954204;28;20038;-34
2020/12/08 05:21:33;;;;;;;3.25;2.28;;;;;;;25.88;30.04;94953.19;4956337;28;20416;-34
2020/12/08 05:23:59;;;;;;;2.95;2.00;;;;;;;25.89;29.83;94949.63;4963252;28;20039;-36
2020/12/08 05:26:27;;;;;;;3.45;2.13;;;;;;;25.87;29.82;94951.53;4962020;28;20042;-34
2020/12/08 05:28:58;;;;;;;3.50;2.25;;;;;;;25.88;29.88;94947.94;4964510;28;20041;-34
2020/12/08 05:31:26;;;;;;;2.63;2.00;;;;;;;25.89;29.91;94954.84;4963162;28;20041;-34
2020/12/08 05:33:51;;;;;;;2.90;1.95;;;;;;;25.89;30.01;94959.28;4964421;28;20082;-34
2020/12/08 05:36:17;;;;;;;3.28;1.90;;;;;;;25.88;29.80;94954.97;4962609;28;20039;-34
2020/12/08 05:38:42;;;;;;;3.28;2.10;;;;;;;25.88;29.81;94953.19;4965498;28;20051;-34
2020/12/08 05:41:08;;;;;;;2.30;1.85;;;;;;;25.89;29.93;94954.84;4948080;28;20039;-33
2020/12/08 05:43:40;;;;;;;2.65;1.95;;;;;;;25.88;29.93;94947.09;4958791;28;20046;-34
2020/12/08 05:46:06;;;;;;;3.75;2.00;;;;;;;25.88;30.05;94947.09;4957328;28;20042;-34
2020/12/08 05:48:32;;;;;;;2.25;1.90;;;;;;;25.88;29.92;94952.34;4969221;28;20046;-34
2020/12/08 05:51:06;;;;;;;2.55;1.80;;;;;;;25.88;29.93;94949.72;4964860;28;20030;-35
2020/12/08 05:53:31;;;;;;;2.65;1.90;;;;;;;25.87;30.00;94946.28;4961187;28;20089;-34
2020/12/08 05:56:06;;;;;;;4.57;2.30;;;;;;;25.87;29.86;94948.06;4957339;28;20050;-34
2020/12/08 05:58:32;;;;;;;4.35;2.40;;;;;;;25.87;30.01;94950.69;4957984;28;20615;-37
2020/12/08 06:01:04;;;;;;;2.75;2.00;;;;;;;25.87;29.81;94945.44;4956166;28;20093;-36
2020/12/08 06:03:30;;;;;;;3.00;1.90;;;;;;;25.87;30.09;94937.56;4964462;28;20035;-42
2020/12/08 06:06:04;;;;;;;3.10;1.98;;;;;;;25.86;30.14;94933.28;4962318;28;20049;-34
2020/12/08 06:08:30;;;;;;;5.28;2.17;;;;;;;25.87;29.90;94929.72;4963352;28;20109;-34
2020/12/08 06:10:57;;;;;;;2.00;1.80;;;;;;;25.87;29.93;94927.09;4961411;28;20038;-34
2020/12/08 06:13:32;;;;;;;2.75;1.60;;;;;;;25.86;29.92;94933.28;4959506;28;20039;-34
2020/12/08 06:16:01;;;;;;;1.70;1.60;;;;;;;25.85;29.81;94937.69;4955543;28;20469;-40
2020/12/08 06:18:30;;;;;;;2.03;1.75;;;;;;;25.84;29.96;94936.03;4958689;28;20095;-34
2020/12/08 06:20:56;;;;;;;3.17;2.05;;;;;;;25.85;29.81;94942.13;4972238;28;20050;-34
2020/12/08 06:23:22;;;;;;;2.92;1.88;;;;;;;25.83;29.90;94935.19;4969887;28;20101;-34
2020/12/08 06:25:55;;;;;;;4.20;2.03;;;;;;;25.83;30.04;94950.94;4965561;28;20412;-34
2020/12/08 06:28:22;;;;;;;3.08;1.80;;;;;;;25.82;29.95;94949.28;4963050;28;20101;-34
2020/12/08 06:30:48;;;;;;;2.30;1.85;;;;;;;25.82;29.86;94951.91;4960640;28;20051;-34
2020/12/08 06:33:13;;;;;;;2.20;1.77;;;;;;;25.82;29.94;94949.28;4962690;28;20368;-34
2020/12/08 06:35:39;;;;;;;3.45;2.08;;;;;;;25.83;30.05;94955.38;4959143;28;20713;-34
2020/12/08 06:38:05;;;;;;;2.85;1.88;;;;;;;25.83;29.92;94960.63;4962545;28;20041;-34
2020/12/08 06:40:31;;;;;;;3.17;1.90;;;;;;;25.82;30.00;94969.47;4962508;28;20055;-35
2020/12/08 06:42:57;;;;;;;2.70;2.15;;;;;;;25.81;30.03;94968.63;4958143;28;20519;-34
2020/12/08 06:45:24;;;;;;;2.35;1.40;;;;;;;25.81;30.13;94968.63;4966708;28;20067;-34
2020/12/08 06:47:50;;;;;;;2.90;1.88;;;;;;;25.81;30.07;94973.88;4963328;28;20046;-34
2020/12/08 06:50:28;;;;;;;3.47;2.15;;;;;;;25.81;29.89;94976.50;4955752;28;20457;-34
2020/12/08 06:52:56;;;;;;;1.65;1.45;;;;;;;25.82;29.99;94974.72;4964219;28;20046;-34
2020/12/08 06:55:21;;;;;;;2.25;1.85;;;;;;;25.81;29.92;94976.50;4967585;28;20449;-34
2020/12/08 06:57:47;;;;;;;2.83;1.75;;;;;;;25.81;29.95;94984.38;4968379;28;20054;-34
2020/12/08 07:00:13;;;;;;;2.72;1.90;;;;;;;25.82;29.87;94985.22;4957593;28;20070;-33
2020/12/08 07:02:49;;;;;;;2.30;1.80;;;;;;;25.82;29.94;94985.22;4953547;28;20031;-35
2020/12/08 07:05:36;;;;;;;2.53;1.63;;;;;;;25.81;30.01;94994.84;4977254;28;20042;-34
2020/12/08 07:08:02;;;;;;;6.50;2.08;;;;;;;25.79;29.96;94993.31;4963096;28;20045;-34
2020/12/08 07:10:27;;;;;;;2.80;1.77;;;;;;;25.78;30.01;94996.91;4956233;28;20038;-34
2020/12/08 07:12:53;;;;;;;3.17;1.60;;;;;;;25.77;30.17;94992.59;4955655;28;20042;-35
2020/12/08 07:15:25;;;;;;;2.78;2.08;;;;;;;25.77;30.12;94995.22;4966194;28;20343;-34
2020/12/08 07:17:57;;;;;;;2.75;2.28;;;;;;;25.75;29.80;94998.00;4966748;28;20568;-34
2020/12/08 07:20:24;;;;;;;2.78;2.15;;;;;;;25.74;29.79;94998.13;4953502;28;20051;-34
2020/12/08 07:22:49;;;;;;;9.27;2.20;;;;;;;25.70;29.94;95008.84;4962200;28;20491;-34
2020/12/08 07:25:16;;;;;;;3.42;2.50;;;;;;;25.69;29.96;94996.69;4963899;28;20043;-34
2020/12/08 07:27:43;;;;;;;3.50;2.20;;;;;;;25.67;29.85;95003.03;4960253;28;20670;-34
2020/12/08 07:30:09;;;;;;;2.83;2.20;;;;;;;25.64;29.97;95005.88;4960403;28;20126;-35
2020/12/08 07:32:34;;;;;;;5.40;2.47;;;;;;;25.62;29.94;95010.44;4954419;28;20047;-34
2020/12/08 07:35:00;;;;;;;2.85;2.20;;;;;;;25.62;30.05;95013.06;4958863;28;20054;-34
2020/12/08 07:37:25;;;;;;;4.25;1.98;;;;;;;25.62;30.22;95006.00;4956502;28;20051;-34
2020/12/08 07:39:52;;;;;;;3.13;1.95;;;;;;;25.64;30.02;95000.63;4954685;28;20050;-34
2020/12/08 07:42:18;;;;;;;4.00;1.90;;;;;;;25.66;30.04;95011.88;4955299;28;20089;-34
2020/12/08 07:44:55;;;;;;;5.95;2.00;;;;;;;25.67;30.19;95008.28;4957646;28;20038;-34
2020/12/08 07:47:21;;;;;;;3.05;2.10;;;;;;;25.67;30.30;95008.28;4959805;28;20125;-34
2020/12/08 07:49:46;;;;;;;2.13;1.70;;;;;;;25.66;30.17;95002.19;4959733;28;20039;-35
2020/12/08 07:52:11;;;;;;;6.18;3.50;;;;;;;25.65;29.07;94997.06;4955837;28;20047;-34
2020/12/08 07:54:38;;;;;;;6.80;2.83;;;;;;;25.63;29.28;95002.41;4948900;28;20042;-35
2020/12/08 07:57:03;;;;;;;8.10;2.55;;;;;;;25.64;29.89;95008.50;4962357;28;20727;-34
2020/12/08 07:59:28;;;;;;;3.67;2.20;;;;;;;25.63;30.36;95012.09;4954012;28;20294;-34
2020/12/08 08:01:55;;;;;;;2.80;2.00;;;;;;;25.61;30.35;95003.50;4962198;28;20784;-34
2020/12/08 08:04:20;;;;;;;5.50;2.13;;;;;;;25.61;30.40;95008.75;4959955;28;20406;-33
2020/12/08 08:06:46;;;;;;;6.18;2.20;;;;;;;25.60;30.43;95013.19;4958289;28;20049;-35
2020/12/08 08:09:12;;;;;;;2.85;2.13;;;;;;;25.60;30.52;95014.97;4960472;28;20030;-34
2020/12/08 08:11:37;;;;;;;6.70;2.05;;;;;;;25.61;30.66;95009.59;4972275;28;20042;-34
2020/12/08 08:14:03;;;;;;;2.60;2.05;;;;;;;25.62;30.68;95005.19;4959226;28;20790;-34
2020/12/08 08:16:30;;;;;;;2.80;2.10;;;;;;;25.63;30.70;95007.66;4957961;28;20197;-34
2020/12/08 08:18:55;;;;;;;2.97;2.17;;;;;;;25.63;30.78;95001.59;4960662;28;20125;-35
2020/12/08 08:21:21;;;;;;;3.13;2.03;;;;;;;25.64;30.76;94992.78;4958079;28;20039;-34
2020/12/08 08:23:47;;;;;;;3.28;2.42;;;;;;;25.63;30.62;95001.59;4965386;28;20050;-35
2020/12/08 08:26:14;;;;;;;3.90;2.70;;;;;;;25.63;30.56;95002.41;4958386;28;20066;-34
2020/12/08 08:28:41;;;;;;;6.10;2.70;;;;;;;25.63;30.34;95012.91;4959648;28;20139;-35
2020/12/08 08:31:06;;;;;;;5.82;2.78;;;;;;;25.61;30.40;95019.25;4958196;28;20065;-34
2020/12/08 08:33:32;;;;;;;5.13;2.60;;;;;;;25.61;30.50;95019.25;4957259;28;20434;-36
2020/12/08 08:35:58;;;;;;;5.32;2.80;;;;;;;25.60;30.48;95017.59;4962476;28;20043;-34
2020/12/08 08:38:26;;;;;;;3.70;2.70;;;;;;;25.57;30.34;95030.00;4958253;28;20062;-41
2020/12/08 08:40:58;;;;;;;4.22;2.50;;;;;;;25.57;30.41;95030.00;4957319;28;20097;-39
2020/12/08 08:43:24;;;;;;;3.75;2.20;;;;;;;25.61;30.51;95030.59;4955833;28;20027;-41
2020/12/08 08:45:51;;;;;;;2.95;2.03;;;;;;;25.63;30.76;95036.53;4956146;28;20035;-40
2020/12/08 08:48:16;;;;;;;3.50;1.92;;;;;;;25.67;30.71;95031.88;4955492;28;20046;-38
2020/12/08 08:50:42;;;;;;;2.92;1.80;;;;;;;25.65;30.84;95020.66;4957627;28;20377;-40
2020/12/08 08:53:07;;;;;;;2.15;1.95;;;;;;;25.67;30.58;95031.88;4952893;28;20063;-38
2020/12/08 08:55:33;;;;;;;3.60;2.00;;;;;;;25.68;30.55;95036.16;4956282;28;20042;-42
2020/12/08 08:57:59;;;;;;;3.90;2.58;;;;;;;25.67;30.85;95029.25;4956912;28;20170;-40
2020/12/08 09:00:25;;;;;;;3.35;1.90;;;;;;;25.67;30.83;95029.25;4954241;28;20184;-39
2020/12/08 09:02:52;;;;;;;4.13;2.00;;;;;;;25.69;30.77;95029.94;4971579;28;20543;-43
2020/12/08 09:05:18;;;;;;;2.45;2.03;;;;;;;25.71;30.76;95025.44;4953576;28;20102;-39
2020/12/08 09:07:44;;;;;;;3.13;1.98;;;;;;;25.73;30.73;95030.56;4956084;28;20125;-39
2020/12/08 09:10:10;;;;;;;2.17;1.83;;;;;;;25.72;30.97;95027.09;4955503;28;20524;-41
2020/12/08 09:12:38;;;;;;;5.68;2.55;;;;;;;25.74;31.25;95035.66;4955717;28;20078;-39
2020/12/08 09:15:05;;;;;;;10.18;2.10;;;;;;;25.75;31.36;95036.50;4957613;28;20531;-40
2020/12/08 09:17:30;;;;;;;3.00;1.85;;;;;;;25.74;31.21;95030.41;4956209;28;20545;-41
2020/12/08 09:19:56;;;;;;;2.30;1.98;;;;;;;25.75;31.34;95032.09;4954467;28;20050;-37
2020/12/08 09:22:23;;;;;;;2.20;1.90;;;;;;;25.76;31.23;95027.66;4956422;28;20061;-41
2020/12/08 09:24:49;;;;;;;3.00;1.98;;;;;;;25.77;31.48;95035.41;4963654;28;20733;-39
2020/12/08 09:27:14;;;;;;;20.90;8.25;;;;;;;25.77;25.86;95024.06;4963078;28;20046;-44
2020/12/08 09:29:41;;;;;;;15.40;7.20;;;;;;;25.72;25.22;95032.34;4955317;28;20101;-37
2020/12/08 09:32:06;;;;;;;5.82;2.90;;;;;;;25.72;29.79;95024.47;4964994;28;20038;-40
2020/12/08 09:34:32;;;;;;;13.38;2.50;;;;;;;25.73;30.74;95020.06;4961991;28;20074;-39
2020/12/08 09:36:58;;;;;;;6.88;2.63;;;;;;;25.74;30.57;95022.53;4979299;28;20046;-42
2020/12/08 09:39:24;;;;;;;9.27;2.63;;;;;;;25.74;30.71;95022.53;4960409;28;20663;-41
2020/12/08 09:41:50;;;;;;;4.75;2.15;;;;;;;25.76;30.78;95032.91;4965390;28;20039;-43
2020/12/08 09:44:16;;;;;;;3.67;2.25;;;;;;;25.77;30.52;95027.56;4954614;28;20042;-42
2020/12/08 09:46:42;;;;;;;4.90;2.85;;;;;;;25.78;30.50;95026.59;4954161;28;20516;-45
2020/12/08 09:49:08;;;;;;;5.78;2.60;;;;;;;25.80;30.73;95018.59;4960859;28;20046;-45
2020/12/08 09:51:35;;;;;;;6.50;2.70;;;;;;;25.82;30.89;95020.13;4956148;28;20093;-41
2020/12/08 09:54:00;;;;;;;5.80;2.70;;;;;;;25.83;30.76;95021.78;4954951;28;20046;-42
2020/12/08 09:56:26;;;;;;;7.90;2.80;;;;;;;25.85;30.48;95026.91;4952454;28;20081;-42
2020/12/08 09:58:55;;;;;;;5.03;2.45;;;;;;;25.85;30.43;95026.09;4955832;28;20070;-41
2020/12/08 10:01:25;;;;;;;4.97;2.70;;;;;;;25.83;30.61;95023.59;4954700;28;20079;-42
2020/12/08 10:03:51;;;;;;;6.03;2.50;;;;;;;25.81;30.58;95021.09;4955709;28;20035;-44
2020/12/08 10:06:18;;;;;;;4.55;2.80;;;;;;;25.81;30.58;95026.34;4955572;28;20090;-42
2020/12/08 10:08:43;;;;;;;4.15;2.35;;;;;;;25.80;30.73;95022.06;4961057;28;20575;-39
2020/12/08 10:11:09;;;;;;;5.82;2.10;;;;;;;25.81;29.10;95026.34;4956486;28;20044;-40
2020/12/08 10:13:36;;;;;;;3.50;2.40;;;;;;;25.82;28.74;95033.25;4964788;28;20047;-41
2020/12/08 10:16:02;;;;;;;4.95;2.50;;;;;;;25.81;29.02;95026.34;4951582;28;20035;-38
2020/12/08 10:18:27;;;;;;;9.20;2.65;;;;;;;25.81;28.46;95020.25;4959022;28;20034;-39
2020/12/08 10:20:53;;;;;;;9.98;3.10;;;;;;;25.83;28.20;95015.72;4963136;28;20601;-41
2020/12/08 10:23:19;;;;;;;7.05;4.82;;;;;;;25.81;26.81;95015.00;4963692;28;20574;-42
2020/12/08 10:25:44;;;;;;;6.47;4.00;;;;;;;25.78;26.82;95018.72;4961326;28;20046;-40
2020/12/08 10:28:10;;;;;;;3.80;2.60;;;;;;;25.78;28.29;95025.78;4959457;28;20043;-40
2020/12/08 10:30:36;;;;;;;3.88;2.70;;;;;;;25.77;28.86;95019.69;4955303;28;20471;-40
2020/12/08 10:33:01;;;;;;;5.78;4.28;;;;;;;25.75;28.09;95011.13;4959330;28;20038;-40
2020/12/08 10:35:28;;;;;;;6.28;4.20;;;;;;;25.74;27.47;95014.66;4962249;28;20050;-41
2020/12/08 10:37:53;;;;;;;13.50;4.75;;;;;;;25.71;27.19;95012.31;4955670;28;20035;-41
2020/12/08 10:40:19;;;;;;;4.45;3.03;;;;;;;25.71;28.12;95014.94;4957198;28;20047;-39
2020/12/08 10:42:45;;;;;;;5.95;5.00;;;;;;;25.69;26.42;95019.47;4958472;28;20095;-44
2020/12/08 10:45:11;;;;;;;4.97;4.05;;;;;;;25.67;26.93;95018.75;4956685;28;20046;-40
2020/12/08 10:47:37;;;;;;;6.50;2.75;;;;;;;25.64;28.23;95019.00;4957172;28;20065;-40
2020/12/08 10:50:03;;;;;;;9.30;3.45;;;;;;;25.61;27.78;95024.50;4952575;28;20639;-40
2020/12/08 10:52:29;;;;;;;7.68;3.60;;;;;;;25.60;28.12;95017.59;4954091;28;20159;-39
2020/12/08 10:54:55;;;;;;;6.55;3.70;;;;;;;25.59;28.35;95015.94;4950939;28;20538;-41
2020/12/08 10:57:21;;;;;;;9.55;3.80;;;;;;;25.59;28.40;95014.13;4958491;28;20031;-39
2020/12/08 10:59:46;;;;;;;9.57;3.58;;;;;;;25.59;28.59;95013.31;4964919;28;20050;-42
2020/12/08 11:02:12;;;;;;;16.45;4.13;;;;;;;25.58;28.51;95015.06;4956192;28;20034;-41
2020/12/08 11:04:38;;;;;;;13.43;4.78;;;;;;;25.59;28.56;95015.94;4955873;28;20409;-45
2020/12/08 11:07:03;;;;;;;9.23;3.92;;;;;;;25.61;28.78;95020.09;4954309;28;20042;-41
2020/12/08 11:09:30;;;;;;;9.13;4.50;;;;;;;25.61;28.82;95020.09;4958707;28;20034;-40
2020/12/08 11:11:55;;;;;;;17.58;4.25;;;;;;;25.61;28.80;95019.25;4954807;28;20034;-40
2020/12/08 11:14:21;;;;;;;9.60;4.22;;;;;;;25.63;28.87;95009.47;4955044;28;20074;-37
2020/12/08 11:16:47;;;;;;;13.30;4.00;;;;;;;25.64;29.05;95008.50;4956362;28;20048;-38
2020/12/08 11:19:13;;;;;;;11.73;4.07;;;;;;;25.65;29.10;95008.41;4962584;28;20522;-37
2020/12/08 11:21:39;;;;;;;11.82;3.60;;;;;;;25.67;29.15;95013.53;4960282;28;20043;-37
2020/12/08 11:24:05;;;;;;;14.77;11.73;;;;;;;25.57;21.72;94998.53;4962163;28;20696;-38
2020/12/08 11:26:32;;;;;;;24.42;13.95;;;;;;;25.15;19.68;95003.56;4959462;28;20047;-41
2020/12/08 11:28:58;;;;;;;19.33;14.15;;;;;;;24.52;19.96;95007.50;4960169;28;20117;-41